Anmeldung

Bitte die für das Benutzerkonto hinterlegte E-Mail-Adresse eingeben. Der Benutzername wird dann an diese E-Mail-Adresse geschickt.

Flugwetter Augsburg

[source: ADDS]
METAR
EDMA 040650Z 00000KT CAVOK 05/01 Q1023 =
TAF
Cookies erleichtern die Bereitstellung unserer Dienste. Mit der Nutzung unserer Dienste erklären Sie sich damit einverstanden, dass wir Cookies verwenden.
Weitere Informationen Ok